createdAt,value
2023-01-30T00:01:30.573Z,15.38
2023-01-30T00:03:56.814Z,16.05
2023-01-30T00:06:23.702Z,15.32
2023-01-30T00:08:50.030Z,15.32
2023-01-30T00:11:17.388Z,14.70
2023-01-30T00:13:43.864Z,16.08
2023-01-30T00:16:10.149Z,16.88
2023-01-30T00:18:37.116Z,15.95
2023-01-30T00:21:04.515Z,16.20
2023-01-30T00:23:31.498Z,16.08
2023-01-30T00:25:58.018Z,17.50
2023-01-30T00:28:24.595Z,15.00
2023-01-30T00:30:51.485Z,14.85
2023-01-30T00:33:18.019Z,15.68
2023-01-30T00:35:47.740Z,15.57
2023-01-30T00:38:14.241Z,15.23
2023-01-30T00:40:40.518Z,17.05
2023-01-30T00:43:25.560Z,15.60
2023-01-30T00:46:12.301Z,16.70
2023-01-30T00:48:38.512Z,17.58
2023-01-30T00:51:04.889Z,16.98
2023-01-30T00:53:31.243Z,16.67
2023-01-30T00:55:57.472Z,17.90
2023-01-30T00:58:23.980Z,17.35
2023-01-30T01:00:50.836Z,17.95
2023-01-30T01:03:17.367Z,18.17
2023-01-30T01:05:44.032Z,18.70
2023-01-30T01:08:10.741Z,17.35
2023-01-30T01:10:36.997Z,19.23
2023-01-30T01:13:03.368Z,17.80
2023-01-30T01:15:30.131Z,19.17
2023-01-30T01:17:56.350Z,17.55
2023-01-30T01:20:22.907Z,18.13
2023-01-30T01:22:53.687Z,17.70
2023-01-30T01:25:20.282Z,18.60
2023-01-30T01:27:46.913Z,18.15
2023-01-30T01:30:13.432Z,17.55
2023-01-30T01:32:39.646Z,18.02
2023-01-30T01:35:06.099Z,19.30
2023-01-30T01:37:32.316Z,17.05
2023-01-30T01:40:17.156Z,16.52
2023-01-30T01:42:43.845Z,17.63
2023-01-30T01:45:11.516Z,18.23
2023-01-30T01:47:39.347Z,17.83
2023-01-30T01:50:06.367Z,17.92
2023-01-30T01:52:32.601Z,16.65
2023-01-30T01:55:01.512Z,17.52
2023-01-30T01:57:39.516Z,17.60
2023-01-30T02:00:12.979Z,18.70
2023-01-30T02:02:43.661Z,17.63
2023-01-30T02:05:11.207Z,17.83
2023-01-30T02:07:43.389Z,16.45
2023-01-30T02:10:11.226Z,17.50
2023-01-30T02:12:38.386Z,17.73
2023-01-30T02:15:04.858Z,17.17
2023-01-30T02:17:31.181Z,17.13
2023-01-30T02:20:04.795Z,18.13
2023-01-30T02:22:46.051Z,17.35
2023-01-30T02:25:30.827Z,17.25
2023-01-30T02:28:17.418Z,16.50
2023-01-30T02:31:02.520Z,17.27
2023-01-30T02:33:47.325Z,17.85
2023-01-30T02:36:16.778Z,17.77
2023-01-30T02:38:49.084Z,16.52
2023-01-30T02:41:32.853Z,16.23
2023-01-30T02:44:02.050Z,16.92
2023-01-30T02:46:43.785Z,18.05
2023-01-30T02:49:20.554Z,19.02
2023-01-30T02:51:47.313Z,19.15
2023-01-30T02:54:14.836Z,17.75
2023-01-30T02:56:49.838Z,17.75
2023-01-30T02:59:18.419Z,17.15
2023-01-30T03:01:53.665Z,17.50
2023-01-30T03:04:27.605Z,17.25
2023-01-30T03:06:53.804Z,18.50
2023-01-30T03:09:40.806Z,19.17
2023-01-30T03:12:09.457Z,18.90
2023-01-30T03:14:42.403Z,19.52
2023-01-30T03:17:09.409Z,16.83
2023-01-30T03:19:35.802Z,17.50
2023-01-30T03:22:02.245Z,17.73
2023-01-30T03:24:28.629Z,18.50
2023-01-30T03:26:58.273Z,18.05
2023-01-30T03:29:24.486Z,17.85
2023-01-30T03:31:50.765Z,18.48
2023-01-30T03:34:16.985Z,16.92
2023-01-30T03:36:43.217Z,17.63
2023-01-30T03:39:09.424Z,16.85
2023-01-30T03:41:35.699Z,17.52
2023-01-30T03:44:01.954Z,17.70
2023-01-30T03:46:28.255Z,16.83
2023-01-30T03:48:54.476Z,17.02
2023-01-30T03:51:20.765Z,16.75
2023-01-30T03:53:46.962Z,16.48
2023-01-30T03:56:13.175Z,16.25
2023-01-30T03:58:39.392Z,16.17
2023-01-30T04:01:05.696Z,17.05
2023-01-30T04:03:32.736Z,15.25
2023-01-30T04:05:58.943Z,15.07
2023-01-30T04:08:25.156Z,15.52
2023-01-30T04:10:51.356Z,15.07
2023-01-30T04:13:17.578Z,14.88
2023-01-30T04:15:43.776Z,14.48
2023-01-30T04:18:10.008Z,13.95
2023-01-30T04:20:36.243Z,14.82
2023-01-30T04:23:02.466Z,14.05
2023-01-30T04:25:28.770Z,14.50
2023-01-30T04:27:55.067Z,15.60
2023-01-30T04:30:21.294Z,14.98
2023-01-30T04:32:47.543Z,14.85
2023-01-30T04:35:13.885Z,14.75
2023-01-30T04:37:40.150Z,14.63
2023-01-30T04:40:06.706Z,15.35
2023-01-30T04:42:32.993Z,15.70
2023-01-30T04:44:59.187Z,15.35
2023-01-30T04:47:25.461Z,15.30
2023-01-30T04:49:51.703Z,15.32
2023-01-30T04:52:17.898Z,14.90
2023-01-30T04:54:44.079Z,16.45
2023-01-30T04:57:10.282Z,16.25
2023-01-30T04:59:36.514Z,16.02
2023-01-30T05:02:02.754Z,15.73
2023-01-30T05:04:29.002Z,15.77
2023-01-30T05:06:55.215Z,16.10
2023-01-30T05:09:21.432Z,16.35
2023-01-30T05:11:47.647Z,16.10
2023-01-30T05:14:13.877Z,15.70
2023-01-30T05:16:40.098Z,16.42
2023-01-30T05:19:06.290Z,17.77
2023-01-30T05:21:33.577Z,15.55
2023-01-30T05:23:59.773Z,16.38
2023-01-30T05:26:26.105Z,16.88
2023-01-30T05:28:53.585Z,17.27
2023-01-30T05:31:20.112Z,15.98
2023-01-30T05:33:47.393Z,16.27
2023-01-30T05:36:14.863Z,15.88
2023-01-30T05:38:42.220Z,16.08
2023-01-30T05:41:08.444Z,15.75
2023-01-30T05:43:35.225Z,15.20
2023-01-30T05:46:02.154Z,15.25
2023-01-30T05:48:28.814Z,15.02
2023-01-30T05:50:55.922Z,14.38
2023-01-30T05:53:23.009Z,15.25
2023-01-30T05:55:55.793Z,14.60
2023-01-30T05:58:22.145Z,13.93
2023-01-30T06:00:48.353Z,14.52
2023-01-30T06:03:14.592Z,13.50
2023-01-30T06:05:40.827Z,14.15
2023-01-30T06:08:07.991Z,12.88
2023-01-30T06:10:34.786Z,12.70
2023-01-30T06:13:01.052Z,12.32
2023-01-30T06:15:27.438Z,13.02
2023-01-30T06:17:53.661Z,12.02
2023-01-30T06:20:19.936Z,12.52
2023-01-30T06:22:47.428Z,11.95
2023-01-30T06:25:13.819Z,12.30
2023-01-30T06:27:40.074Z,11.30
2023-01-30T06:30:06.553Z,12.25
2023-01-30T06:32:32.804Z,11.20
2023-01-30T06:34:58.996Z,10.93
2023-01-30T06:37:25.232Z,11.68
2023-01-30T06:39:51.426Z,11.02
2023-01-30T06:42:17.640Z,10.50
2023-01-30T06:44:43.839Z,10.25
2023-01-30T06:47:10.095Z,10.40
2023-01-30T06:49:36.352Z,10.38
2023-01-30T06:52:02.568Z,10.75
2023-01-30T06:54:28.827Z,9.95
2023-01-30T06:56:55.066Z,10.88
2023-01-30T06:59:21.399Z,10.25
2023-01-30T07:01:47.631Z,9.77
2023-01-30T07:04:13.934Z,10.35
2023-01-30T07:06:40.347Z,10.20
2023-01-30T07:09:06.578Z,10.23
2023-01-30T07:11:32.814Z,9.63
2023-01-30T07:13:59.068Z,10.23
2023-01-30T07:16:29.485Z,10.27
2023-01-30T07:18:58.368Z,10.67
2023-01-30T07:21:25.128Z,9.95
2023-01-30T07:23:51.315Z,10.45
2023-01-30T07:26:17.792Z,10.63
2023-01-30T07:28:44.024Z,10.68
2023-01-30T07:31:10.248Z,11.05
2023-01-30T07:33:36.573Z,10.38
2023-01-30T07:36:02.865Z,11.10
2023-01-30T07:38:29.060Z,11.02
2023-01-30T07:40:57.094Z,11.63
2023-01-30T07:43:23.567Z,11.27
2023-01-30T07:45:49.934Z,10.40
2023-01-30T07:48:17.414Z,10.23
2023-01-30T07:50:43.712Z,10.68
2023-01-30T07:53:11.270Z,9.65
2023-01-30T07:55:37.653Z,10.50
2023-01-30T07:58:04.192Z,11.00
2023-01-30T08:00:30.933Z,10.50
2023-01-30T08:02:57.143Z,10.18
2023-01-30T08:05:23.366Z,10.38
2023-01-30T08:07:49.638Z,11.07
2023-01-30T08:10:16.707Z,10.45
2023-01-30T08:12:43.193Z,11.13
2023-01-30T08:15:10.119Z,11.60
2023-01-30T08:17:36.407Z,10.02
2023-01-30T08:20:02.741Z,10.38
2023-01-30T08:22:29.093Z,10.00
2023-01-30T08:24:55.292Z,10.27
2023-01-30T08:27:21.519Z,10.35
2023-01-30T08:29:47.779Z,9.85
2023-01-30T08:32:14.907Z,10.63
2023-01-30T08:34:42.066Z,10.40
2023-01-30T08:37:08.350Z,10.45
2023-01-30T08:39:36.358Z,10.07
2023-01-30T08:42:03.493Z,10.95
2023-01-30T08:44:29.707Z,10.77
2023-01-30T08:46:55.965Z,11.13
2023-01-30T08:49:22.152Z,11.45
2023-01-30T08:51:48.367Z,11.57
2023-01-30T08:54:14.657Z,11.88
2023-01-30T08:56:41.728Z,10.63
2023-01-30T08:59:07.982Z,11.07
2023-01-30T09:01:35.038Z,10.23
2023-01-30T09:04:01.286Z,11.30
2023-01-30T09:06:27.507Z,10.45
2023-01-30T09:08:53.744Z,10.18
2023-01-30T09:11:20.006Z,9.60
2023-01-30T09:13:48.647Z,9.48
2023-01-30T09:16:15.146Z,8.70
2023-01-30T09:18:42.367Z,7.20
2023-01-30T09:21:09.157Z,6.43
2023-01-30T09:23:35.697Z,6.35
2023-01-30T09:26:02.315Z,5.95
2023-01-30T09:28:28.553Z,5.75
2023-01-30T09:30:56.917Z,5.20
2023-01-30T09:33:23.269Z,4.63
2023-01-30T09:35:50.167Z,4.47
2023-01-30T09:38:16.868Z,5.00
2023-01-30T09:41:06.737Z,4.22
2023-01-30T09:43:46.901Z,4.28
2023-01-30T09:46:32.082Z,3.78
2023-01-30T09:49:04.060Z,3.70
2023-01-30T09:51:48.651Z,4.90
2023-01-30T09:54:14.848Z,4.22
2023-01-30T09:56:41.384Z,3.28
2023-01-30T09:59:12.360Z,4.13
2023-01-30T10:01:44.260Z,4.47
2023-01-30T10:04:29.477Z,3.80
2023-01-30T10:06:58.750Z,3.58
2023-01-30T10:09:33.246Z,4.35
2023-01-30T10:12:10.197Z,4.18
2023-01-30T10:14:55.114Z,3.83
2023-01-30T10:17:28.259Z,3.88
2023-01-30T10:20:02.403Z,3.85
2023-01-30T10:22:32.416Z,3.40
2023-01-30T10:25:07.710Z,3.90
2023-01-30T10:27:34.701Z,3.45
2023-01-30T10:30:02.451Z,3.78
2023-01-30T10:32:37.683Z,3.90
2023-01-30T10:35:06.513Z,4.03
2023-01-30T10:37:36.189Z,4.30
2023-01-30T10:40:02.388Z,4.00
2023-01-30T10:42:39.116Z,4.10
2023-01-30T10:45:31.602Z,3.30
2023-01-30T10:47:57.816Z,3.35
2023-01-30T10:50:30.864Z,4.50
2023-01-30T10:53:02.130Z,3.83
2023-01-30T10:55:42.057Z,4.18
2023-01-30T10:58:23.896Z,3.38
2023-01-30T11:01:10.356Z,4.35
2023-01-30T11:03:40.855Z,4.20
2023-01-30T11:06:16.722Z,4.32
2023-01-30T11:08:43.200Z,3.80
2023-01-30T11:11:24.741Z,3.30
2023-01-30T11:13:50.945Z,3.95
2023-01-30T11:16:17.479Z,3.70
2023-01-30T11:21:43.164Z,4.18
2023-01-30T11:24:17.201Z,3.17
2023-01-30T11:26:47.844Z,4.50
2023-01-30T11:29:37.553Z,5.13
2023-01-30T11:32:04.921Z,3.53
2023-01-30T11:34:31.751Z,4.75
2023-01-30T11:37:14.957Z,4.13
2023-01-30T11:39:48.463Z,4.10
2023-01-30T11:42:14.666Z,3.25
2023-01-30T11:44:42.027Z,3.67
2023-01-30T11:47:09.775Z,3.80
2023-01-30T11:49:47.815Z,4.43
2023-01-30T11:52:17.713Z,4.05
2023-01-30T11:54:44.571Z,4.03
2023-01-30T11:57:13.139Z,4.15
2023-01-30T11:59:48.255Z,3.15
2023-01-30T12:02:20.922Z,3.38
2023-01-30T12:04:50.924Z,4.15
2023-01-30T12:07:20.338Z,3.33
2023-01-30T12:09:46.614Z,4.18
2023-01-30T12:12:31.670Z,3.63
2023-01-30T12:15:02.682Z,3.95
2023-01-30T12:17:40.265Z,3.10
2023-01-30T12:20:25.151Z,3.10
2023-01-30T12:23:14.647Z,3.50
2023-01-30T12:25:56.873Z,3.20
2023-01-30T12:28:32.722Z,3.97
2023-01-30T12:31:05.890Z,3.40
2023-01-30T12:33:34.716Z,3.67
2023-01-30T12:36:09.962Z,3.38
2023-01-30T12:38:39.201Z,3.47
2023-01-30T12:41:24.023Z,3.15
2023-01-30T12:44:02.927Z,4.00
2023-01-30T12:46:37.029Z,3.20
2023-01-30T12:49:11.084Z,4.13
2023-01-30T12:51:50.136Z,4.15
2023-01-30T12:54:16.287Z,4.03
2023-01-30T12:56:49.867Z,3.75
2023-01-30T12:59:29.575Z,3.25
2023-01-30T13:02:26.561Z,3.55
2023-01-30T13:05:03.918Z,4.40
2023-01-30T13:07:30.840Z,3.38
2023-01-30T13:10:13.582Z,3.15
2023-01-30T13:12:59.993Z,3.75
2023-01-30T13:15:38.498Z,3.30
2023-01-30T13:18:10.703Z,3.75
2023-01-30T13:20:43.451Z,3.92
2023-01-30T13:23:13.095Z,3.05
2023-01-30T13:25:39.345Z,3.60
2023-01-30T13:28:09.578Z,4.05
2023-01-30T13:30:35.899Z,3.45
2023-01-30T13:33:09.960Z,4.35
2023-01-30T13:35:40.069Z,3.45
2023-01-30T13:38:07.458Z,3.40
2023-01-30T13:40:42.233Z,3.40
2023-01-30T13:43:09.939Z,3.25
2023-01-30T13:45:37.662Z,3.65
2023-01-30T13:48:16.067Z,3.30
2023-01-30T13:50:51.453Z,4.13
2023-01-30T13:53:20.940Z,3.60
2023-01-30T13:55:51.622Z,3.20
2023-01-30T13:58:25.051Z,4.13
2023-01-30T14:00:52.281Z,3.65
2023-01-30T14:03:31.738Z,3.38
2023-01-30T14:05:59.100Z,3.65
2023-01-30T14:08:26.992Z,4.57
2023-01-30T14:10:55.603Z,3.92
2023-01-30T14:13:22.918Z,3.38
2023-01-30T14:15:56.352Z,4.38
2023-01-30T14:18:23.836Z,3.33
2023-01-30T14:20:51.107Z,3.83
2023-01-30T14:23:26.618Z,3.47
2023-01-30T14:25:56.309Z,4.15
2023-01-30T14:28:22.872Z,3.47
2023-01-30T14:30:50.165Z,4.25
2023-01-30T14:33:19.098Z,4.35
2023-01-30T14:35:46.373Z,4.22
2023-01-30T14:38:17.053Z,5.68
2023-01-30T14:40:47.152Z,4.17
2023-01-30T14:43:14.823Z,4.13
2023-01-30T14:45:51.536Z,4.07
2023-01-30T14:48:32.524Z,3.13
2023-01-30T14:51:17.770Z,3.83
2023-01-30T14:53:53.039Z,3.33
2023-01-30T14:56:20.134Z,4.20
2023-01-30T14:58:59.041Z,4.32
2023-01-30T15:01:25.703Z,3.38
2023-01-30T15:03:52.088Z,3.83
2023-01-30T15:06:19.889Z,3.83
2023-01-30T15:08:46.942Z,3.95
2023-01-30T15:11:29.725Z,3.90
2023-01-30T15:14:07.478Z,3.85
2023-01-30T15:16:40.865Z,3.70
2023-01-30T15:19:27.391Z,3.95
2023-01-30T15:22:12.486Z,4.53
2023-01-30T15:24:38.734Z,3.70
2023-01-30T15:27:24.047Z,3.67
2023-01-30T15:30:05.745Z,3.63
2023-01-30T15:32:33.334Z,4.60
2023-01-30T15:35:00.735Z,3.55
2023-01-30T15:37:34.848Z,4.80
2023-01-30T15:40:30.423Z,4.10
2023-01-30T15:42:56.587Z,4.10
2023-01-30T15:45:34.076Z,4.40
2023-01-30T15:48:23.958Z,4.00
2023-01-30T15:50:53.483Z,4.32
2023-01-30T15:53:23.771Z,4.45
2023-01-30T15:55:50.390Z,3.13
2023-01-30T15:58:19.083Z,3.47
2023-01-30T16:00:50.465Z,3.72
2023-01-30T16:03:18.939Z,3.92
2023-01-30T16:05:49.415Z,4.25
2023-01-30T16:08:21.091Z,4.30
2023-01-30T16:10:47.459Z,4.03
2023-01-30T16:13:13.691Z,3.58
2023-01-30T16:15:42.132Z,3.38
2023-01-30T16:18:20.448Z,4.22
2023-01-30T16:21:00.315Z,3.55
2023-01-30T16:23:27.728Z,3.28
2023-01-30T16:25:54.650Z,3.45
2023-01-30T16:28:24.954Z,3.42
2023-01-30T16:30:59.274Z,3.88
2023-01-30T16:33:25.710Z,4.68
2023-01-30T16:35:51.896Z,4.03
2023-01-30T16:38:36.450Z,3.92
2023-01-30T16:41:03.458Z,3.65
2023-01-30T16:43:31.220Z,3.92
2023-01-30T16:46:16.278Z,3.85
2023-01-30T16:48:43.110Z,3.67
2023-01-30T16:51:14.296Z,4.28
2023-01-30T16:53:46.983Z,3.22
2023-01-30T16:56:17.028Z,3.97
2023-01-30T16:58:49.373Z,4.07
2023-01-30T17:01:15.823Z,4.53
2023-01-30T17:03:43.462Z,3.97
2023-01-30T17:06:16.952Z,4.10
2023-01-30T17:08:48.256Z,4.80
2023-01-30T17:11:29.477Z,3.58
2023-01-30T17:14:14.310Z,4.65
2023-01-30T17:16:42.790Z,4.55
2023-01-30T17:19:09.093Z,3.78
2023-01-30T17:21:42.070Z,4.32
2023-01-30T17:24:11.686Z,3.92
2023-01-30T17:26:40.501Z,3.90
2023-01-30T17:29:17.010Z,4.47
2023-01-30T17:31:50.853Z,4.90
2023-01-30T17:34:17.871Z,4.35
2023-01-30T17:36:46.434Z,4.40
2023-01-30T17:39:14.208Z,4.43
2023-01-30T17:41:41.071Z,4.30
2023-01-30T17:44:10.446Z,4.07
2023-01-30T17:46:47.285Z,4.45
2023-01-30T17:49:23.430Z,4.65
2023-01-30T17:51:50.424Z,4.60
2023-01-30T17:54:16.786Z,4.13
2023-01-30T17:56:45.219Z,4.80
2023-01-30T17:59:15.950Z,4.50
2023-01-30T18:01:46.002Z,4.15
2023-01-30T18:04:12.704Z,4.25
2023-01-30T18:06:40.280Z,5.32
2023-01-30T18:09:06.572Z,3.95
2023-01-30T18:11:32.919Z,3.88
2023-01-30T18:13:59.181Z,4.20
2023-01-30T18:16:31.015Z,3.85
2023-01-30T18:18:57.912Z,4.82
2023-01-30T18:21:24.393Z,5.00
2023-01-30T18:23:50.658Z,4.70
2023-01-30T18:26:17.564Z,4.32
2023-01-30T18:28:44.223Z,4.65
2023-01-30T18:31:11.373Z,4.13
2023-01-30T18:33:38.320Z,3.92
2023-01-30T18:36:05.523Z,4.32
2023-01-30T18:38:31.908Z,4.65
2023-01-30T18:40:58.212Z,5.03
2023-01-30T18:43:24.754Z,4.18
2023-01-30T18:46:00.687Z,4.47
2023-01-30T18:48:26.918Z,4.40
2023-01-30T18:50:53.174Z,4.68
2023-01-30T18:53:19.448Z,4.05
2023-01-30T18:55:49.586Z,4.40
2023-01-30T18:58:16.105Z,5.20
2023-01-30T19:00:42.299Z,5.32
2023-01-30T19:03:08.492Z,5.32
2023-01-30T19:05:36.199Z,4.70
2023-01-30T19:08:02.445Z,4.95
2023-01-30T19:10:30.535Z,4.05
2023-01-30T19:13:15.381Z,4.35
2023-01-30T19:15:41.604Z,4.82
2023-01-30T19:18:07.809Z,5.15
2023-01-30T19:20:34.403Z,4.88
2023-01-30T19:23:00.660Z,5.65
2023-01-30T19:25:26.963Z,4.40
2023-01-30T19:27:55.618Z,5.13
2023-01-30T19:30:22.685Z,4.50
2023-01-30T19:32:50.017Z,5.25
2023-01-30T19:35:16.521Z,4.28
2023-01-30T19:37:42.834Z,4.82
2023-01-30T19:40:10.697Z,4.70
2023-01-30T19:42:38.778Z,5.72
2023-01-30T19:45:07.833Z,5.20
2023-01-30T19:47:34.392Z,4.30
2023-01-30T19:50:00.613Z,4.68
2023-01-30T19:52:27.119Z,5.28
2023-01-30T19:54:53.349Z,4.97
2023-01-30T19:57:20.884Z,5.15
2023-01-30T19:59:47.156Z,5.15
2023-01-30T20:02:13.489Z,6.30
2023-01-30T20:04:40.554Z,4.53
2023-01-30T20:07:06.930Z,5.68
2023-01-30T20:09:33.203Z,5.03
2023-01-30T20:11:59.482Z,5.05
2023-01-30T20:14:25.718Z,5.47
2023-01-30T20:16:51.941Z,5.63
2023-01-30T20:19:18.158Z,5.50
2023-01-30T20:21:44.479Z,5.53
2023-01-30T20:24:14.558Z,4.88
2023-01-30T20:26:41.145Z,5.85
2023-01-30T20:29:08.363Z,4.90
2023-01-30T20:31:34.782Z,4.40
2023-01-30T20:34:02.292Z,5.60
2023-01-30T20:36:28.926Z,5.32
2023-01-30T20:38:55.531Z,4.47
2023-01-30T20:41:22.982Z,4.80
2023-01-30T20:43:51.002Z,4.90
2023-01-30T20:46:21.629Z,5.38
2023-01-30T20:48:48.319Z,4.73
2023-01-30T20:51:16.296Z,5.10
2023-01-30T20:53:46.799Z,5.28
2023-01-30T20:56:13.010Z,4.15
2023-01-30T20:58:39.771Z,5.65
2023-01-30T21:01:07.424Z,4.50
2023-01-30T21:03:33.677Z,4.90
2023-01-30T21:06:00.409Z,5.15
2023-01-30T21:08:27.219Z,4.85
2023-01-30T21:10:53.934Z,4.45
2023-01-30T21:13:20.773Z,4.07
2023-01-30T21:15:47.137Z,4.88
2023-01-30T21:18:13.762Z,6.07
2023-01-30T21:20:40.281Z,5.25
2023-01-30T21:23:06.673Z,5.95
2023-01-30T21:25:34.672Z,6.10
2023-01-30T21:28:00.931Z,5.88
2023-01-30T21:30:27.458Z,5.68
2023-01-30T21:32:53.739Z,5.05
2023-01-30T21:35:20.292Z,6.30
2023-01-30T21:38:05.348Z,5.68
2023-01-30T21:40:50.386Z,4.95
2023-01-30T21:43:16.900Z,5.85
2023-01-30T21:45:45.477Z,6.18
2023-01-30T21:48:11.804Z,5.93
2023-01-30T21:50:38.076Z,6.85
2023-01-30T21:53:05.014Z,5.38
2023-01-30T21:55:31.251Z,6.45
2023-01-30T21:57:57.461Z,6.05
2023-01-30T22:00:23.898Z,6.07
2023-01-30T22:02:50.577Z,5.50
2023-01-30T22:05:16.931Z,6.03
2023-01-30T22:07:43.134Z,6.32
2023-01-30T22:10:09.641Z,5.20
2023-01-30T22:12:36.417Z,6.35
2023-01-30T22:15:02.728Z,5.07
2023-01-30T22:17:29.047Z,6.50
2023-01-30T22:19:55.309Z,5.60
2023-01-30T22:22:23.840Z,5.65
2023-01-30T22:24:50.208Z,4.57
2023-01-30T22:27:17.006Z,5.28
2023-01-30T22:29:43.201Z,5.20
2023-01-30T22:32:09.502Z,5.22
2023-01-30T22:34:36.350Z,5.03
2023-01-30T22:37:02.992Z,5.13
2023-01-30T22:39:29.408Z,5.03
2023-01-30T22:41:55.614Z,4.97
2023-01-30T22:44:22.004Z,4.90
2023-01-30T22:46:49.927Z,5.85
2023-01-30T22:49:16.165Z,5.50
2023-01-30T22:51:43.572Z,5.15
2023-01-30T22:54:15.807Z,4.63
2023-01-30T22:56:47.417Z,5.18
2023-01-30T23:01:41.625Z,5.35
2023-01-30T23:04:11.779Z,6.07
2023-01-30T23:06:38.545Z,5.95
2023-01-30T23:09:05.687Z,5.15
2023-01-30T23:11:37.036Z,4.35
2023-01-30T23:14:09.130Z,5.97
2023-01-30T23:16:36.881Z,4.97
2023-01-30T23:19:04.441Z,5.65
2023-01-30T23:21:35.864Z,5.22
2023-01-30T23:26:30.017Z,5.50
2023-01-30T23:28:56.660Z,5.45
2023-01-30T23:31:24.372Z,4.93
2023-01-30T23:33:54.695Z,4.43
2023-01-30T23:36:21.016Z,4.70
2023-01-30T23:38:51.223Z,4.85
2023-01-30T23:41:19.631Z,4.97
2023-01-30T23:43:46.552Z,4.85
2023-01-30T23:46:15.781Z,5.57
2023-01-30T23:48:42.610Z,5.93
2023-01-30T23:51:10.041Z,4.70
2023-01-30T23:53:36.752Z,5.35
2023-01-30T23:56:03.780Z,5.82
2023-01-30T23:58:29.996Z,5.90
